ZA-0032 weather

New Scotland Airport
New Scotland, Mpumalanga, South Africa

Public forecast

Using degrees Celsius for public forecast. Weather courtesy of forecast.io.

METAR (pilot weather report)

Report is more than 6 hours old.

Closest report is Matsapha Airport, 33.8 nm (62.6 km) ESE. Retrieved 2019/09/18 09:00 UTC (20 hours ago):

FDMS 180900Z 12004KT CAVOK 31/16 Q1021 NOSIG

TAF (pilot weather forecast)

Forecast is more than 12 hours old.

Closest forecast is Matsapha Airport, 33.8 nm (62.6 km) ESE. Retrieved 2019/06/03 12:35 UTC (4 months ago):

TAF FDMS 031000Z 0312/0418 12006KT CAVOK